Copperhill, TN (37317)

1:20 PM EST on February 11, 2016 (GMT -0500)
Horseshoe Bend county park | | Change Station
CLOSE
Current Station
Personal Weather Station
Location: Mineral Bluff, GA
Elevation: 1647 ft
Nearby Weather Stations

Elev 1647 ft 34.98 °N, 84.36 °W | Updated 6 minutes ago

Mostly Cloudy
Mostly Cloudy
46.8 °F
Feels Like 47 °F
N
1.1
Wind Variable Wind from ENE

Today
High -- | Low -- °F
--% Chance of Precip.
Yesterday
High -- | Low -- °F
Precip. -- in
Pressure 30.19 in
Visibility 10.0 miles
Clouds Overcast 5000 ft
Windchill 47 °F
Dew Point 24 °F
Humidity 40%
Rainfall 0.05 in
Snow Depth Not available.
7:27 AM 6:15 PM
Waxing Crescent, 13% visible
METAR KRZR 111815Z AUTO 36011KT 10SM OVC050 05/M06 A3019 RMK A01
Pressure 30.19 in
Visibility 10.0 miles
Clouds Overcast 5000 ft
Windchill 47 °F
Dew Point 24 °F
Humidity 40%
Rainfall 0.05 in
Snow Depth Not available.
7:27 AM 6:15 PM
Waxing Crescent, 13% visible
METAR KRZR 111815Z AUTO 36011KT 10SM OVC050 05/M06 A3019 RMK A01

10-Day Weather Forecast

Almanac

Astronomy

Feb. 11, 2016 Rise Set
Actual Time
Civil Twilight
Nautical Twilight
Astronomical Twilight
Moon
Length of Visible Light
Length of Day
Tomorrow will be .
, % of the Moon is Illuminated

Today's Extremes

State Highs State Lows

Community

WunderPhotos

Upload Photos

1,892,122 photos uploaded!

WunderBlog® & News

Nearby

Air Quality

  Air Quality AQ Index Pollutant
Not available.

Snow Depth

Station Depth Elevation

Earthquake Activity

City Distance Mag. Time & Date
Minimum magnitude displayed is 2.5.

Coastal Water Temperatures

Place Temperature

Stations

Nearby Weather Stations

Station Location Temp. Windchill Dew Point Humidity Wind Precip. Elev Updated Type
                   

Watches & Warnings

There are currently no watches in effect.